Pirapetinga, Brazil
Current Conditions -  °F | °C
As of 5:00 PM on Sunday 21 Dec 2014 (Local Time) from SBME Reporting Station
Broken Clouds Broken Clouds  
Wind Chill: 90°   Ceiling: 8000
Heat Index: 98°   Visibility: 6mi
Dew Point: 73°   Wind: 12mph
Humidity: 59%   Direction: 100°E
Pressure: 29.74"   Gusts: NA
Location:  21.66°S, 42.35°W
Report Text: SBME 211900Z 10010KT 9999 FEW025 BKN080 32/23 Q1007
Loading
Personal Weather Stations






























Interactive Weather Map New forecast layout! Learn more

10-Day Weather Forecast

Advertisements
Track Severe Weather on mobile